createdAt,value
2019-03-31T00:01:22.413Z,25.87
2019-03-31T00:03:50.066Z,29.57
2019-03-31T00:06:21.601Z,84.77
2019-03-31T00:08:53.999Z,36.60
2019-03-31T00:11:24.918Z,35.50
2019-03-31T00:13:55.439Z,31.77
2019-03-31T00:16:26.189Z,33.37
2019-03-31T00:18:57.289Z,29.13
2019-03-31T00:21:32.744Z,40.27
2019-03-31T00:24:03.311Z,34.70
2019-03-31T00:26:33.832Z,33.90
2019-03-31T00:29:04.679Z,35.80
2019-03-31T00:31:36.348Z,66.40
2019-03-31T00:34:22.103Z,26.67
2019-03-31T00:36:54.442Z,32.03
2019-03-31T00:39:27.100Z,44.10
2019-03-31T00:42:02.674Z,52.80
2019-03-31T00:44:35.983Z,69.53
2019-03-31T00:47:06.862Z,63.53
2019-03-31T00:49:41.719Z,53.90
2019-03-31T00:52:12.648Z,54.10
2019-03-31T00:54:42.961Z,80.13
2019-03-31T00:57:13.350Z,137.97
2019-03-31T00:59:45.561Z,44.30
2019-03-31T01:02:22.431Z,67.20
2019-03-31T01:04:53.254Z,41.10
2019-03-31T01:07:31.446Z,78.90
2019-03-31T01:10:04.122Z,54.23
2019-03-31T01:12:35.232Z,38.47
2019-03-31T01:15:13.005Z,71.93
2019-03-31T01:17:51.563Z,44.47
2019-03-31T01:20:28.468Z,52.07
2019-03-31T01:22:59.599Z,33.33
2019-03-31T01:25:36.744Z,36.00
2019-03-31T01:28:07.891Z,37.83
2019-03-31T01:30:38.696Z,58.37
2019-03-31T01:33:09.548Z,38.40
2019-03-31T01:35:48.330Z,45.53
2019-03-31T01:38:25.950Z,42.13
2019-03-31T01:41:00.670Z,52.17
2019-03-31T01:43:49.138Z,29.70
2019-03-31T01:46:24.573Z,84.53
2019-03-31T01:48:55.042Z,47.13
2019-03-31T01:51:25.448Z,36.23
2019-03-31T01:53:56.026Z,41.50
2019-03-31T01:56:28.838Z,33.17
2019-03-31T01:59:05.576Z,32.27
2019-03-31T02:01:37.986Z,36.77
2019-03-31T02:04:09.070Z,29.27
2019-03-31T02:06:40.651Z,32.00
2019-03-31T02:09:12.787Z,33.53
2019-03-31T02:11:46.015Z,42.03
2019-03-31T02:14:17.680Z,31.83
2019-03-31T02:16:49.432Z,35.47
2019-03-31T02:19:21.015Z,32.93
2019-03-31T02:21:53.091Z,27.70
2019-03-31T02:24:24.160Z,24.63
2019-03-31T02:26:58.036Z,33.53
2019-03-31T02:29:41.195Z,26.17
2019-03-31T02:32:23.706Z,29.30
2019-03-31T02:34:46.305Z,27.40
2019-03-31T02:37:21.556Z,26.60
2019-03-31T02:39:53.780Z,26.60
2019-03-31T02:42:28.732Z,23.60
2019-03-31T02:45:01.074Z,46.50
2019-03-31T02:47:33.673Z,34.17
2019-03-31T02:50:06.227Z,50.20
2019-03-31T02:52:39.683Z,30.40
2019-03-31T02:55:10.377Z,27.50
2019-03-31T02:57:46.618Z,32.13
2019-03-31T03:00:17.711Z,29.03
2019-03-31T03:02:50.215Z,28.80
2019-03-31T03:05:34.551Z,28.60
2019-03-31T03:08:22.127Z,25.03
2019-03-31T03:11:14.080Z,24.87
2019-03-31T03:13:54.255Z,25.17
2019-03-31T03:16:26.674Z,26.17
2019-03-31T03:19:01.374Z,26.33
2019-03-31T03:21:39.630Z,29.80
2019-03-31T03:24:15.458Z,30.50
2019-03-31T03:27:05.852Z,28.50
2019-03-31T03:29:39.335Z,30.67
2019-03-31T03:32:13.405Z,25.97
2019-03-31T03:34:46.803Z,30.53
2019-03-31T03:37:17.930Z,31.53
2019-03-31T03:39:59.154Z,32.27
2019-03-31T03:42:39.584Z,25.30
2019-03-31T03:45:24.582Z,119.13
2019-03-31T03:48:03.959Z,50.30
2019-03-31T03:50:36.770Z,29.37
2019-03-31T03:53:08.675Z,24.83
2019-03-31T03:56:22.612Z,26.83
2019-03-31T03:59:04.441Z,25.23
2019-03-31T04:01:34.948Z,25.00
2019-03-31T04:04:05.269Z,27.57
2019-03-31T04:06:35.976Z,24.50
2019-03-31T04:09:12.998Z,31.67
2019-03-31T04:11:43.688Z,25.97
2019-03-31T04:14:17.981Z,27.87
2019-03-31T04:16:50.991Z,25.87
2019-03-31T04:19:31.921Z,29.27
2019-03-31T04:22:04.010Z,27.53
2019-03-31T04:24:34.816Z,26.83
2019-03-31T04:27:05.298Z,27.00
2019-03-31T04:29:36.797Z,24.20
2019-03-31T04:32:09.618Z,23.93
2019-03-31T04:34:39.945Z,25.30
2019-03-31T04:37:10.530Z,26.10
2019-03-31T04:39:41.228Z,24.17
2019-03-31T04:42:12.616Z,24.00
2019-03-31T04:44:43.001Z,23.13
2019-03-31T04:47:14.008Z,24.73
2019-03-31T04:49:44.356Z,24.10
2019-03-31T04:52:14.609Z,25.13
2019-03-31T04:54:44.894Z,27.40
2019-03-31T04:57:15.419Z,27.00
2019-03-31T04:59:45.678Z,28.37
2019-03-31T05:02:16.238Z,26.00
2019-03-31T05:04:46.554Z,26.50
2019-03-31T05:07:17.154Z,27.20
2019-03-31T05:09:47.972Z,29.73
2019-03-31T05:12:18.274Z,29.23
2019-03-31T05:14:48.834Z,27.47
2019-03-31T05:17:19.006Z,27.43
2019-03-31T05:19:50.279Z,26.13
2019-03-31T05:22:20.519Z,27.87
2019-03-31T05:24:50.879Z,24.83
2019-03-31T05:27:21.675Z,26.70
2019-03-31T05:29:52.901Z,25.57
2019-03-31T05:32:23.146Z,27.43
2019-03-31T05:34:57.021Z,25.67
2019-03-31T05:37:28.040Z,22.50
2019-03-31T05:39:58.816Z,28.67
2019-03-31T05:42:31.184Z,24.97
2019-03-31T05:45:04.714Z,22.87
2019-03-31T05:47:39.423Z,26.77
2019-03-31T05:50:11.075Z,25.60
2019-03-31T05:52:42.693Z,26.47
2019-03-31T05:55:13.650Z,27.83
2019-03-31T05:57:44.269Z,25.57
2019-03-31T06:00:17.965Z,24.30
2019-03-31T06:02:48.441Z,25.87
2019-03-31T06:05:18.850Z,26.07
2019-03-31T06:07:49.367Z,27.03
2019-03-31T06:10:23.524Z,24.77
2019-03-31T06:12:53.810Z,27.90
2019-03-31T06:15:24.296Z,25.03
2019-03-31T06:17:55.200Z,28.50
2019-03-31T06:20:27.715Z,28.30
2019-03-31T06:22:58.342Z,29.17
2019-03-31T06:25:28.769Z,28.47
2019-03-31T06:27:59.342Z,28.00
2019-03-31T06:30:29.615Z,29.43
2019-03-31T06:32:59.890Z,27.27
2019-03-31T06:35:31.207Z,28.80
2019-03-31T06:38:01.639Z,27.73
2019-03-31T06:40:32.643Z,26.53
2019-03-31T06:43:06.197Z,26.20
2019-03-31T06:45:37.999Z,29.10
2019-03-31T06:48:08.450Z,29.00
2019-03-31T06:50:39.091Z,29.50
2019-03-31T06:53:09.692Z,28.03
2019-03-31T06:55:40.608Z,30.70
2019-03-31T06:58:12.953Z,28.20
2019-03-31T07:00:44.949Z,31.43
2019-03-31T07:03:15.353Z,34.17
2019-03-31T07:05:51.769Z,28.47
2019-03-31T07:08:22.693Z,32.40
2019-03-31T07:10:53.283Z,28.13
2019-03-31T07:13:26.675Z,32.70
2019-03-31T07:15:57.228Z,30.57
2019-03-31T07:18:27.570Z,27.20
2019-03-31T07:20:58.347Z,30.90
2019-03-31T07:23:31.419Z,33.00
2019-03-31T07:26:07.475Z,31.87
2019-03-31T07:28:40.916Z,33.03
2019-03-31T07:31:11.356Z,39.67
2019-03-31T07:33:44.335Z,39.93
2019-03-31T07:36:27.239Z,49.87
2019-03-31T07:39:01.557Z,49.23
2019-03-31T07:41:39.478Z,45.17
2019-03-31T07:44:18.718Z,52.37
2019-03-31T07:47:02.174Z,50.43
2019-03-31T07:49:32.718Z,47.23
2019-03-31T07:52:22.798Z,53.13
2019-03-31T07:54:55.315Z,52.90
2019-03-31T07:57:26.099Z,49.90
2019-03-31T07:59:56.718Z,51.90
2019-03-31T08:02:27.086Z,53.07
2019-03-31T08:04:59.018Z,58.20
2019-03-31T08:07:29.532Z,50.90
2019-03-31T08:10:05.255Z,50.33
2019-03-31T08:12:41.382Z,50.00
2019-03-31T08:15:13.076Z,51.43
2019-03-31T08:17:43.352Z,49.83
2019-03-31T08:20:15.183Z,51.93
2019-03-31T08:22:45.635Z,48.37
2019-03-31T08:25:18.197Z,121.67
2019-03-31T08:27:50.283Z,46.13
2019-03-31T08:30:26.054Z,49.93
2019-03-31T08:32:59.508Z,50.00
2019-03-31T08:35:46.012Z,49.27
2019-03-31T08:38:04.461Z,47.07
2019-03-31T08:40:36.807Z,53.67
2019-03-31T08:43:07.101Z,48.90
2019-03-31T08:45:41.930Z,53.07
2019-03-31T08:48:13.495Z,54.80
2019-03-31T08:50:43.938Z,54.77
2019-03-31T08:53:14.743Z,55.50
2019-03-31T08:55:45.132Z,54.57
2019-03-31T08:58:16.792Z,55.77
2019-03-31T09:00:56.738Z,58.73
2019-03-31T09:03:30.095Z,52.50
2019-03-31T09:06:03.527Z,56.03
2019-03-31T09:08:39.058Z,62.07
2019-03-31T09:11:11.044Z,62.37
2019-03-31T09:13:42.735Z,56.57
2019-03-31T09:16:13.982Z,58.33
2019-03-31T09:18:44.250Z,59.37
2019-03-31T09:21:16.245Z,58.57
2019-03-31T09:23:46.762Z,59.37
2019-03-31T09:26:20.109Z,61.00
2019-03-31T09:28:50.769Z,61.10
2019-03-31T09:31:21.216Z,59.60
2019-03-31T09:33:51.531Z,58.20
2019-03-31T09:36:22.312Z,56.63
2019-03-31T09:38:53.279Z,56.70
2019-03-31T09:41:43.281Z,57.53
2019-03-31T09:44:35.128Z,58.50
2019-03-31T09:47:18.330Z,60.33
2019-03-31T09:49:48.917Z,56.40
2019-03-31T09:52:20.095Z,56.27
2019-03-31T09:54:50.440Z,58.10
2019-03-31T09:57:24.823Z,56.97
2019-03-31T10:00:10.331Z,56.07
2019-03-31T10:02:45.460Z,59.87
2019-03-31T10:05:18.784Z,59.03
2019-03-31T10:07:50.104Z,64.47
2019-03-31T10:10:33.262Z,58.37
2019-03-31T10:13:08.819Z,59.83
2019-03-31T10:15:40.176Z,57.50
2019-03-31T10:18:18.141Z,58.87
2019-03-31T10:20:52.698Z,68.30
2019-03-31T10:23:30.350Z,63.63
2019-03-31T10:26:08.423Z,58.83
2019-03-31T10:28:45.962Z,59.97
2019-03-31T10:31:18.199Z,64.40
2019-03-31T10:33:48.949Z,97.17
2019-03-31T10:36:20.221Z,56.03
2019-03-31T10:38:51.259Z,61.87
2019-03-31T10:41:22.459Z,62.83
2019-03-31T10:43:55.429Z,60.93
2019-03-31T10:46:37.795Z,59.30
2019-03-31T10:49:09.171Z,59.27
2019-03-31T10:51:48.309Z,63.13
2019-03-31T10:54:21.853Z,61.27
2019-03-31T10:56:58.429Z,60.43
2019-03-31T10:59:29.303Z,56.87
2019-03-31T11:02:05.297Z,59.13
2019-03-31T11:04:45.894Z,60.27
2019-03-31T11:07:19.471Z,64.23
2019-03-31T11:09:55.697Z,57.73
2019-03-31T11:12:39.614Z,52.10
2019-03-31T11:15:51.950Z,62.10
2019-03-31T11:18:27.467Z,53.67
2019-03-31T11:20:59.767Z,51.33
2019-03-31T11:23:38.957Z,49.50
2019-03-31T11:26:12.694Z,51.50
2019-03-31T11:28:50.212Z,48.10
2019-03-31T11:34:26.198Z,46.43
2019-03-31T11:37:12.837Z,47.07
2019-03-31T11:39:39.885Z,49.83
2019-03-31T11:42:11.255Z,42.17
2019-03-31T11:44:44.929Z,50.37
2019-03-31T11:47:24.833Z,54.97
2019-03-31T11:49:56.741Z,44.90
2019-03-31T11:52:27.505Z,39.10
2019-03-31T11:55:02.528Z,41.07
2019-03-31T11:57:35.897Z,39.93
2019-03-31T12:00:12.168Z,41.87
2019-03-31T12:02:47.023Z,42.27
2019-03-31T12:05:21.076Z,41.90
2019-03-31T12:07:54.946Z,40.33
2019-03-31T12:10:46.293Z,36.70
2019-03-31T12:13:20.512Z,38.67
2019-03-31T12:15:55.516Z,37.40
2019-03-31T12:19:04.630Z,40.83
2019-03-31T12:21:44.115Z,33.50
2019-03-31T12:24:17.166Z,33.67
2019-03-31T12:26:53.203Z,32.90
2019-03-31T12:29:26.120Z,81.47
2019-03-31T12:31:57.755Z,33.33
2019-03-31T12:34:32.300Z,30.00
2019-03-31T12:37:03.353Z,29.03
2019-03-31T12:39:34.681Z,27.40
2019-03-31T12:42:05.701Z,28.27
2019-03-31T12:44:36.823Z,30.27
2019-03-31T12:47:13.671Z,29.20
2019-03-31T12:49:45.733Z,28.03
2019-03-31T12:52:18.029Z,26.57
2019-03-31T12:54:53.204Z,32.03
2019-03-31T12:57:27.587Z,25.33
2019-03-31T13:00:04.859Z,30.20
2019-03-31T13:02:40.393Z,55.63
2019-03-31T13:05:14.071Z,27.80
2019-03-31T13:07:56.271Z,33.20
2019-03-31T13:10:21.489Z,23.20
2019-03-31T13:13:16.815Z,24.70
2019-03-31T13:16:04.713Z,26.00
2019-03-31T13:18:36.936Z,23.27
2019-03-31T13:21:31.541Z,25.87
2019-03-31T13:27:42.357Z,24.30
2019-03-31T13:30:34.104Z,42.70
2019-03-31T13:37:04.964Z,22.37
2019-03-31T13:40:02.238Z,25.60
2019-03-31T13:46:07.152Z,22.87
2019-03-31T13:48:40.705Z,23.23
2019-03-31T13:51:17.177Z,22.10
2019-03-31T13:54:02.784Z,23.07
2019-03-31T13:56:34.144Z,21.73
2019-03-31T13:59:05.099Z,23.80
2019-03-31T14:01:37.077Z,25.33
2019-03-31T14:04:15.246Z,21.80
2019-03-31T14:06:47.976Z,23.50
2019-03-31T14:09:42.460Z,21.20
2019-03-31T14:12:26.349Z,24.10
2019-03-31T14:14:57.550Z,22.87
2019-03-31T14:17:34.019Z,21.50
2019-03-31T14:20:23.567Z,18.97
2019-03-31T14:23:17.704Z,20.50
2019-03-31T14:26:07.880Z,20.77
2019-03-31T14:28:38.411Z,20.40
2019-03-31T14:31:15.324Z,21.53
2019-03-31T14:33:59.619Z,23.80
2019-03-31T14:36:37.561Z,30.33
2019-03-31T14:39:12.733Z,19.40
2019-03-31T14:41:43.687Z,19.60
2019-03-31T14:44:15.686Z,21.13
2019-03-31T14:46:50.109Z,20.23
2019-03-31T14:49:25.615Z,20.10
2019-03-31T14:52:05.592Z,19.07
2019-03-31T14:54:41.271Z,20.30
2019-03-31T14:57:23.465Z,18.20
2019-03-31T14:59:57.169Z,18.57
2019-03-31T15:02:33.977Z,22.60
2019-03-31T15:05:11.183Z,15.90
2019-03-31T15:07:42.510Z,19.93
2019-03-31T15:10:25.328Z,20.60
2019-03-31T15:13:04.707Z,19.90
2019-03-31T15:15:57.616Z,24.13
2019-03-31T15:18:28.549Z,18.40
2019-03-31T15:21:06.427Z,18.70
2019-03-31T15:23:44.227Z,17.60
2019-03-31T15:26:18.203Z,19.00
2019-03-31T15:28:55.253Z,18.50
2019-03-31T15:31:26.567Z,20.60
2019-03-31T15:33:57.521Z,20.20
2019-03-31T15:36:51.496Z,22.40
2019-03-31T15:39:26.545Z,20.50
2019-03-31T15:42:36.082Z,23.90
2019-03-31T15:45:39.731Z,16.87
2019-03-31T15:48:23.184Z,16.27
2019-03-31T15:50:54.115Z,15.30
2019-03-31T15:53:27.269Z,15.70
2019-03-31T15:55:58.172Z,15.60
2019-03-31T15:58:29.322Z,15.53
2019-03-31T16:01:08.678Z,15.47
2019-03-31T16:03:54.274Z,22.63
2019-03-31T16:06:38.801Z,14.50
2019-03-31T16:09:26.087Z,13.13
2019-03-31T16:12:01.598Z,13.73
2019-03-31T16:14:39.993Z,12.50
2019-03-31T16:17:13.558Z,14.30
2019-03-31T16:19:47.998Z,13.00
2019-03-31T16:22:24.365Z,18.87
2019-03-31T16:25:10.259Z,10.60
2019-03-31T16:28:05.026Z,13.13
2019-03-31T16:30:35.735Z,11.40
2019-03-31T16:33:07.242Z,17.03
2019-03-31T16:35:40.221Z,13.37
2019-03-31T16:38:28.756Z,11.80
2019-03-31T16:41:43.451Z,15.63
2019-03-31T16:44:19.379Z,18.40
2019-03-31T16:46:51.399Z,13.90
2019-03-31T16:49:28.339Z,13.23
2019-03-31T16:52:02.945Z,13.20
2019-03-31T16:54:46.896Z,12.70
2019-03-31T16:57:31.637Z,16.70
2019-03-31T17:00:22.798Z,10.83
2019-03-31T17:03:20.835Z,13.13
2019-03-31T17:05:56.115Z,13.10
2019-03-31T17:08:26.923Z,12.53
2019-03-31T17:10:58.746Z,12.30
2019-03-31T17:13:32.119Z,12.97
2019-03-31T17:16:08.506Z,10.80
2019-03-31T17:18:42.456Z,13.23
2019-03-31T17:21:16.046Z,13.70
2019-03-31T17:24:19.352Z,14.30
2019-03-31T17:30:29.358Z,22.65
2019-03-31T17:33:10.149Z,14.67
2019-03-31T17:35:47.191Z,21.57
2019-03-31T17:38:20.525Z,12.87
2019-03-31T17:40:52.075Z,15.73
2019-03-31T17:43:23.556Z,17.87
2019-03-31T17:46:24.791Z,16.13
2019-03-31T17:48:57.982Z,14.40
2019-03-31T17:51:32.664Z,14.17
2019-03-31T17:54:05.923Z,20.70
2019-03-31T17:56:41.519Z,17.70
2019-03-31T17:59:15.205Z,14.03
2019-03-31T18:01:54.301Z,14.37
2019-03-31T18:04:33.201Z,13.40
2019-03-31T18:07:22.631Z,12.27
2019-03-31T18:09:59.805Z,26.90
2019-03-31T18:12:51.234Z,19.23
2019-03-31T18:15:34.395Z,15.17
2019-03-31T18:18:09.845Z,14.20
2019-03-31T18:20:50.883Z,12.20
2019-03-31T18:23:32.642Z,11.40
2019-03-31T18:26:04.432Z,20.20
2019-03-31T18:28:44.476Z,14.23
2019-03-31T18:31:22.674Z,12.30
2019-03-31T18:33:58.677Z,13.07
2019-03-31T18:36:36.391Z,12.57
2019-03-31T18:39:13.203Z,12.50
2019-03-31T18:41:48.429Z,11.37
2019-03-31T18:44:45.908Z,17.90
2019-03-31T18:47:29.815Z,14.90
2019-03-31T18:50:05.754Z,13.13
2019-03-31T18:52:41.844Z,12.50
2019-03-31T18:55:33.598Z,12.07
2019-03-31T18:58:21.293Z,12.40
2019-03-31T19:01:07.838Z,13.13
2019-03-31T19:04:00.315Z,13.37
2019-03-31T19:06:55.099Z,11.03
2019-03-31T19:09:43.603Z,9.40
2019-03-31T19:12:27.379Z,9.90
2019-03-31T19:15:26.538Z,11.33
2019-03-31T19:18:21.822Z,10.50
2019-03-31T19:21:26.195Z,10.50
2019-03-31T19:24:08.085Z,9.57
2019-03-31T19:27:15.762Z,10.10
2019-03-31T19:30:04.929Z,9.90
2019-03-31T19:32:56.565Z,10.57
2019-03-31T19:35:58.461Z,8.40
2019-03-31T19:38:52.152Z,9.00
2019-03-31T19:41:49.224Z,10.30
2019-03-31T19:44:52.074Z,9.80
2019-03-31T19:47:57.378Z,9.50
2019-03-31T19:50:51.813Z,9.13
2019-03-31T19:53:45.385Z,9.43
2019-03-31T19:57:01.696Z,8.20
2019-03-31T20:00:00.416Z,23.47
2019-03-31T20:02:59.470Z,12.03
2019-03-31T20:05:51.291Z,8.03
2019-03-31T20:08:45.292Z,8.10
2019-03-31T20:11:28.628Z,8.47
2019-03-31T20:14:29.661Z,9.97
2019-03-31T20:17:21.176Z,8.40
2019-03-31T20:20:35.831Z,9.50
2019-03-31T20:23:35.187Z,7.60
2019-03-31T20:26:33.225Z,8.37
2019-03-31T20:29:21.175Z,10.97
2019-03-31T20:32:11.527Z,10.30
2019-03-31T20:34:47.340Z,8.57
2019-03-31T20:38:04.593Z,7.63
2019-03-31T20:40:54.001Z,8.80
2019-03-31T20:43:44.072Z,8.03
2019-03-31T20:46:16.155Z,8.60
2019-03-31T20:48:46.404Z,7.50
2019-03-31T20:51:20.161Z,10.90
2019-03-31T20:53:50.463Z,7.80
2019-03-31T20:56:23.955Z,8.07
2019-03-31T20:58:53.791Z,9.10
2019-03-31T21:01:39.374Z,8.53
2019-03-31T21:04:09.326Z,9.40
2019-03-31T21:06:56.975Z,7.57
2019-03-31T21:10:00.456Z,9.10
2019-03-31T21:16:50.818Z,7.97
2019-03-31T21:19:31.349Z,6.40
2019-03-31T21:22:06.302Z,9.20
2019-03-31T21:24:37.357Z,7.43
2019-03-31T21:27:16.339Z,6.90
2019-03-31T21:29:54.128Z,7.67
2019-03-31T21:32:33.221Z,6.33
2019-03-31T21:35:07.657Z,6.63
2019-03-31T21:37:51.931Z,7.80
2019-03-31T21:40:23.498Z,7.97
2019-03-31T21:43:01.718Z,5.77
2019-03-31T21:45:44.209Z,7.60
2019-03-31T21:48:15.793Z,5.73
2019-03-31T21:51:13.916Z,6.33
2019-03-31T21:53:49.568Z,8.07
2019-03-31T21:56:22.719Z,10.60
2019-03-31T21:58:57.498Z,5.30
2019-03-31T22:02:06.164Z,5.30
2019-03-31T22:04:32.737Z,6.57
2019-03-31T22:07:15.776Z,6.30
2019-03-31T22:09:51.160Z,8.73
2019-03-31T22:12:26.769Z,12.10
2019-03-31T22:14:59.261Z,9.57
2019-03-31T22:17:36.856Z,6.37
2019-03-31T22:20:11.688Z,4.60
2019-03-31T22:22:49.583Z,4.40
2019-03-31T22:25:32.644Z,6.03
2019-03-31T22:28:10.329Z,5.33
2019-03-31T22:30:44.422Z,6.80
2019-03-31T22:33:18.089Z,6.93
2019-03-31T22:36:08.603Z,5.33
2019-03-31T22:38:40.713Z,5.80
2019-03-31T22:41:12.447Z,4.97
2019-03-31T22:43:47.013Z,4.03
2019-03-31T22:46:17.576Z,5.03
2019-03-31T22:48:49.486Z,4.87
2019-03-31T22:51:26.628Z,5.23
2019-03-31T22:54:01.852Z,5.00
2019-03-31T22:56:34.547Z,5.17
2019-03-31T22:59:11.676Z,4.83
2019-03-31T23:01:43.212Z,5.23
2019-03-31T23:04:30.397Z,5.17
2019-03-31T23:07:08.721Z,34.80
2019-03-31T23:09:42.226Z,4.47
2019-03-31T23:12:16.563Z,6.50
2019-03-31T23:14:48.364Z,6.73
2019-03-31T23:17:21.077Z,4.90
2019-03-31T23:19:52.297Z,3.90
2019-03-31T23:22:27.589Z,5.50
2019-03-31T23:25:03.824Z,4.70
2019-03-31T23:27:33.323Z,3.77
2019-03-31T23:30:11.945Z,5.97
2019-03-31T23:32:42.894Z,4.37
2019-03-31T23:35:22.541Z,4.03
2019-03-31T23:37:55.734Z,5.60
2019-03-31T23:44:02.410Z,6.73
2019-03-31T23:47:01.065Z,4.70
2019-03-31T23:49:55.874Z,5.80
2019-03-31T23:53:12.081Z,4.00
2019-03-31T23:55:49.296Z,4.07
2019-03-31T23:58:25.009Z,4.27
